createdAt,value
2023-02-08T00:00:57.398Z,-1.05
2023-02-08T00:03:29.322Z,-1.04
2023-02-08T00:05:57.105Z,-1.04
2023-02-08T00:08:24.326Z,-1.01
2023-02-08T00:10:51.878Z,-1.02
2023-02-08T00:13:19.519Z,-1.03
2023-02-08T00:15:47.256Z,-1.06
2023-02-08T00:18:15.216Z,-1.10
2023-02-08T00:20:43.761Z,-1.11
2023-02-08T00:23:12.268Z,-1.11
2023-02-08T00:25:41.456Z,-1.08
2023-02-08T00:28:12.868Z,-1.09
2023-02-08T00:30:41.797Z,-1.04
2023-02-08T00:33:09.711Z,-1.03
2023-02-08T00:35:37.543Z,-0.99
2023-02-08T00:38:05.110Z,-1.00
2023-02-08T00:40:33.188Z,-1.03
2023-02-08T00:43:00.504Z,-1.04
2023-02-08T00:45:28.116Z,-0.99
2023-02-08T00:47:57.403Z,-0.94
2023-02-08T00:50:25.171Z,-0.92
2023-02-08T00:52:52.382Z,-0.87
2023-02-08T00:55:19.866Z,-0.90
2023-02-08T00:57:47.251Z,-0.92
2023-02-08T01:00:15.040Z,-0.92
2023-02-08T01:02:42.593Z,-0.92
2023-02-08T01:05:10.387Z,-0.97
2023-02-08T01:07:38.455Z,-1.01
2023-02-08T01:10:07.914Z,-1.07
2023-02-08T01:12:35.545Z,-1.10
2023-02-08T01:15:03.145Z,-1.08
2023-02-08T01:17:30.491Z,-1.12
2023-02-08T01:19:58.019Z,-1.05
2023-02-08T01:22:25.196Z,-1.05
2023-02-08T01:24:53.812Z,-1.08
2023-02-08T01:27:21.108Z,-1.03
2023-02-08T01:29:48.603Z,-1.03
2023-02-08T01:32:15.842Z,-1.01
2023-02-08T01:34:44.310Z,-1.03
2023-02-08T01:37:11.651Z,-1.08
2023-02-08T01:39:39.155Z,-1.08
2023-02-08T01:42:06.538Z,-1.19
2023-02-08T01:45:12.008Z,-1.12
2023-02-08T01:47:39.199Z,-1.17
2023-02-08T01:50:07.347Z,-1.19
2023-02-08T01:52:34.878Z,-1.17
2023-02-08T01:55:07.151Z,-1.16
2023-02-08T01:57:34.543Z,-1.16
2023-02-08T02:00:08.277Z,-1.17
2023-02-08T02:02:43.155Z,-1.12
2023-02-08T02:05:12.007Z,-1.16
2023-02-08T02:07:39.907Z,-1.17
2023-02-08T02:10:25.739Z,-1.20
2023-02-08T02:12:54.296Z,-1.18
2023-02-08T02:15:22.205Z,-1.16
2023-02-08T02:17:49.383Z,-1.15
2023-02-08T02:20:28.722Z,-1.19
2023-02-08T02:23:17.189Z,-1.26
2023-02-08T02:26:10.035Z,-1.27
2023-02-08T02:29:07.358Z,-1.22
2023-02-08T02:32:12.624Z,-1.23
2023-02-08T02:35:04.743Z,-1.29
2023-02-08T02:38:03.218Z,-1.31
2023-02-08T02:40:47.333Z,-1.36
2023-02-08T02:43:41.852Z,-1.36
2023-02-08T02:46:39.002Z,-1.39
2023-02-08T02:49:19.786Z,-1.38
2023-02-08T02:52:08.756Z,-1.42
2023-02-08T02:54:56.147Z,-1.43
2023-02-08T02:57:30.321Z,-1.45
2023-02-08T02:59:58.970Z,-1.43
2023-02-08T03:02:28.325Z,-1.34
2023-02-08T03:04:57.500Z,-1.27
2023-02-08T03:07:38.677Z,-1.25
2023-02-08T03:10:25.079Z,-1.23
2023-02-08T03:12:58.806Z,-1.20
2023-02-08T03:15:29.196Z,-1.18
2023-02-08T03:18:35.594Z,-1.17
2023-02-08T03:21:13.212Z,-1.14
2023-02-08T03:24:03.028Z,-1.20
2023-02-08T03:27:08.364Z,-1.18
2023-02-08T03:29:50.074Z,-1.26
2023-02-08T03:32:24.658Z,-1.25
2023-02-08T03:34:57.428Z,-1.23
2023-02-08T03:37:31.242Z,-1.25
2023-02-08T03:40:04.236Z,-1.22
2023-02-08T03:42:33.033Z,-1.24
2023-02-08T03:45:10.022Z,-1.27
2023-02-08T03:47:39.988Z,-1.27
2023-02-08T03:50:10.289Z,-1.31
2023-02-08T03:52:38.469Z,-1.40
2023-02-08T03:55:10.655Z,-1.42
2023-02-08T03:58:24.421Z,-1.38
2023-02-08T04:01:05.322Z,-1.37
2023-02-08T04:03:33.680Z,-1.35
2023-02-08T04:06:01.576Z,-1.33
2023-02-08T04:08:29.175Z,-1.36
2023-02-08T04:10:56.506Z,-1.40
2023-02-08T04:13:24.062Z,-1.46
2023-02-08T04:15:51.238Z,-1.45
2023-02-08T04:18:18.785Z,-1.44
2023-02-08T04:20:46.032Z,-1.39
2023-02-08T04:23:13.557Z,-1.40
2023-02-08T04:25:40.664Z,-1.44
2023-02-08T04:28:08.176Z,-1.46
2023-02-08T04:30:35.623Z,-1.48
2023-02-08T04:33:03.974Z,-1.48
2023-02-08T04:35:31.119Z,-1.45
2023-02-08T04:37:59.125Z,-1.42
2023-02-08T04:40:26.341Z,-1.53
2023-02-08T04:42:54.072Z,-1.62
2023-02-08T04:45:21.233Z,-1.51
2023-02-08T04:47:48.996Z,-1.49
2023-02-08T04:50:17.090Z,-1.42
2023-02-08T04:52:44.640Z,-1.38
2023-02-08T04:55:12.071Z,-1.37
2023-02-08T04:57:39.891Z,-1.36
2023-02-08T05:00:07.807Z,-1.39
2023-02-08T05:02:35.837Z,-1.42
2023-02-08T05:05:03.193Z,-1.41
2023-02-08T05:07:31.361Z,-1.43
2023-02-08T05:09:58.676Z,-1.46
2023-02-08T05:12:26.115Z,-1.47
2023-02-08T05:14:53.335Z,-1.46
2023-02-08T05:17:21.000Z,-1.47
2023-02-08T05:19:48.171Z,-1.44
2023-02-08T05:22:16.852Z,-1.40
2023-02-08T05:24:44.030Z,-1.40
2023-02-08T05:27:11.564Z,-1.37
2023-02-08T05:29:38.789Z,-1.46
2023-02-08T05:32:06.679Z,-1.50
2023-02-08T05:34:34.068Z,-1.49
2023-02-08T05:37:01.528Z,-1.47
2023-02-08T05:39:28.862Z,-1.45
2023-02-08T05:41:56.391Z,-1.44
2023-02-08T05:44:23.635Z,-1.45
2023-02-08T05:46:51.528Z,-1.50
2023-02-08T05:49:19.053Z,-1.57
2023-02-08T05:51:46.990Z,-1.60
2023-02-08T05:54:14.177Z,-1.67
2023-02-08T05:56:41.758Z,-1.68
2023-02-08T05:59:09.842Z,-1.68
2023-02-08T06:01:37.741Z,-1.68
2023-02-08T06:04:04.894Z,-1.63
2023-02-08T06:06:32.365Z,-1.59
2023-02-08T06:08:59.509Z,-1.53
2023-02-08T06:11:28.105Z,-1.49
2023-02-08T06:13:55.418Z,-1.48
2023-02-08T06:16:23.160Z,-1.43
2023-02-08T06:18:50.559Z,-1.41
2023-02-08T06:21:18.324Z,-1.38
2023-02-08T06:23:45.620Z,-1.33
2023-02-08T06:26:13.379Z,-1.27
2023-02-08T06:28:40.920Z,-1.24
2023-02-08T06:31:08.486Z,-1.27
2023-02-08T06:33:35.828Z,-1.27
2023-02-08T06:36:03.654Z,-1.25
2023-02-08T06:38:30.905Z,-1.24
2023-02-08T06:40:58.404Z,-1.22
2023-02-08T06:43:26.122Z,-1.21
2023-02-08T06:45:53.701Z,-1.19
2023-02-08T06:48:20.962Z,-1.19
2023-02-08T06:50:48.425Z,-1.13
2023-02-08T06:53:15.661Z,-1.08
2023-02-08T06:55:43.314Z,-1.03
2023-02-08T06:58:11.359Z,-1.10
2023-02-08T07:00:39.844Z,-0.99
2023-02-08T07:03:07.278Z,-0.93
2023-02-08T07:05:35.919Z,-0.92
2023-02-08T07:08:03.698Z,-0.93
2023-02-08T07:10:31.400Z,-0.96
2023-02-08T07:12:58.659Z,-1.01
2023-02-08T07:15:26.317Z,-0.97
2023-02-08T07:17:53.732Z,-0.91
2023-02-08T07:20:21.456Z,-0.90
2023-02-08T07:22:48.737Z,-0.91
2023-02-08T07:25:16.405Z,-0.79
2023-02-08T07:27:43.703Z,-0.76
2023-02-08T07:30:11.761Z,-0.73
2023-02-08T07:32:42.679Z,-0.77
2023-02-08T07:35:10.568Z,-0.69
2023-02-08T07:37:38.257Z,-0.71
2023-02-08T07:40:06.392Z,-0.60
2023-02-08T07:42:33.874Z,-0.56
2023-02-08T07:45:22.767Z,-0.52
2023-02-08T07:47:50.136Z,-0.51
2023-02-08T07:50:18.256Z,-0.48
2023-02-08T07:52:47.657Z,-0.31
2023-02-08T07:55:20.638Z,-0.35
2023-02-08T07:57:49.267Z,-0.29
2023-02-08T08:00:18.646Z,-0.22
2023-02-08T08:02:46.131Z,-0.11
2023-02-08T08:05:14.151Z,-0.09
2023-02-08T08:07:41.480Z,-0.04
2023-02-08T08:10:09.732Z,-0.01
2023-02-08T08:12:36.963Z,-0.01
2023-02-08T08:15:05.134Z,0.03
2023-02-08T08:17:32.352Z,0.06
2023-02-08T08:20:00.183Z,0.11
2023-02-08T08:22:27.812Z,0.07
2023-02-08T08:24:55.619Z,0.10
2023-02-08T08:27:23.223Z,0.10
2023-02-08T08:29:50.927Z,0.19
2023-02-08T08:32:18.251Z,0.25
2023-02-08T08:34:45.855Z,0.26
2023-02-08T08:37:13.128Z,0.28
2023-02-08T08:39:41.097Z,0.32
2023-02-08T08:42:08.618Z,0.39
2023-02-08T08:44:36.311Z,0.43
2023-02-08T08:47:03.515Z,0.50
2023-02-08T08:49:31.170Z,0.51
2023-02-08T08:51:58.413Z,0.57
2023-02-08T08:54:25.966Z,0.60
2023-02-08T08:56:53.651Z,0.67
2023-02-08T08:59:21.402Z,0.71
2023-02-08T09:01:48.682Z,0.61
2023-02-08T09:04:16.431Z,0.58
2023-02-08T09:06:43.897Z,0.60
2023-02-08T09:09:11.685Z,0.62
2023-02-08T09:11:39.198Z,0.59
2023-02-08T09:14:06.862Z,0.52
2023-02-08T09:16:34.506Z,0.58
2023-02-08T09:19:03.628Z,0.57
2023-02-08T09:21:31.080Z,0.59
2023-02-08T09:23:58.945Z,0.62
2023-02-08T09:26:26.803Z,0.64
2023-02-08T09:28:54.685Z,0.74
2023-02-08T09:31:27.200Z,0.76
2023-02-08T09:33:55.929Z,0.75
2023-02-08T09:36:25.034Z,0.70
2023-02-08T09:39:00.469Z,0.70
2023-02-08T09:41:48.301Z,0.65
2023-02-08T09:44:44.014Z,0.61
2023-02-08T09:47:34.054Z,0.64
2023-02-08T09:50:20.176Z,0.61
2023-02-08T09:53:21.658Z,0.63
2023-02-08T09:55:55.627Z,0.56
2023-02-08T09:58:43.170Z,0.53
2023-02-08T10:01:19.701Z,0.65
2023-02-08T10:03:47.862Z,0.64
2023-02-08T10:06:17.994Z,0.71
2023-02-08T10:08:47.149Z,0.67
2023-02-08T10:11:52.248Z,0.79
2023-02-08T10:14:38.469Z,0.73
2023-02-08T10:17:29.360Z,0.77
2023-02-08T10:20:24.829Z,0.73
2023-02-08T10:23:01.602Z,0.79
2023-02-08T10:25:59.047Z,0.78
2023-02-08T10:28:39.547Z,0.77
2023-02-08T10:31:12.988Z,0.79
2023-02-08T10:33:44.705Z,0.83
2023-02-08T10:36:25.438Z,0.81
2023-02-08T10:38:55.793Z,0.81
2023-02-08T10:41:26.520Z,0.91
2023-02-08T10:44:10.530Z,0.85
2023-02-08T10:46:47.008Z,0.95
2023-02-08T10:49:26.080Z,1.03
2023-02-08T10:51:54.001Z,0.98
2023-02-08T10:54:21.751Z,1.03
2023-02-08T10:56:57.778Z,1.10
2023-02-08T10:59:32.515Z,1.16
2023-02-08T11:02:00.109Z,1.20
2023-02-08T11:04:27.926Z,1.20
2023-02-08T11:06:56.304Z,1.10
2023-02-08T11:09:33.083Z,1.14
2023-02-08T11:12:01.804Z,1.19
2023-02-08T11:14:49.233Z,1.22
2023-02-08T11:17:33.046Z,1.17
2023-02-08T11:20:01.005Z,1.24
2023-02-08T11:22:31.391Z,1.27
2023-02-08T11:25:05.644Z,1.05
2023-02-08T11:27:36.413Z,1.14
2023-02-08T11:30:13.537Z,1.02
2023-02-08T11:32:42.653Z,0.99
2023-02-08T11:35:22.155Z,1.02
2023-02-08T11:37:57.776Z,1.09
2023-02-08T11:40:30.065Z,0.98
2023-02-08T11:42:58.168Z,0.99
2023-02-08T11:45:31.341Z,0.98
2023-02-08T11:47:59.431Z,0.87
2023-02-08T11:50:45.777Z,0.84
2023-02-08T11:53:36.747Z,0.84
2023-02-08T11:56:19.221Z,0.82
2023-02-08T11:59:09.572Z,0.79
2023-02-08T12:01:39.337Z,0.74
2023-02-08T12:04:17.566Z,0.77
2023-02-08T12:06:48.406Z,1.02
2023-02-08T12:09:34.416Z,1.03
2023-02-08T12:12:27.805Z,1.05
2023-02-08T12:15:07.581Z,1.14
2023-02-08T12:17:42.234Z,1.13
2023-02-08T12:20:47.782Z,1.06
2023-02-08T12:23:42.967Z,1.09
2023-02-08T12:26:12.969Z,1.07
2023-02-08T12:28:50.449Z,1.04
2023-02-08T12:31:26.773Z,1.04
2023-02-08T12:34:16.427Z,1.03
2023-02-08T12:36:43.655Z,1.05
2023-02-08T12:39:34.982Z,1.05
2023-02-08T12:42:14.271Z,0.93
2023-02-08T12:45:10.000Z,0.94
2023-02-08T12:48:04.473Z,0.83
2023-02-08T12:50:38.638Z,0.81
2023-02-08T12:53:25.912Z,0.77
2023-02-08T12:55:55.239Z,0.67
2023-02-08T12:58:28.639Z,0.69
2023-02-08T13:01:02.470Z,0.69
2023-02-08T13:03:36.549Z,0.80
2023-02-08T13:06:08.609Z,0.83
2023-02-08T13:08:50.617Z,0.94
2023-02-08T13:11:40.032Z,0.70
2023-02-08T13:14:13.662Z,0.79
2023-02-08T13:16:47.731Z,0.95
2023-02-08T13:19:28.894Z,1.12
2023-02-08T13:21:58.570Z,1.29
2023-02-08T13:24:35.692Z,1.42
2023-02-08T13:27:05.737Z,1.34
2023-02-08T13:29:33.898Z,1.11
2023-02-08T13:32:09.380Z,1.14
2023-02-08T13:34:52.289Z,1.06
2023-02-08T13:37:28.989Z,0.99
2023-02-08T13:40:21.663Z,0.95
2023-02-08T13:42:55.844Z,0.88
2023-02-08T13:45:27.475Z,0.92
2023-02-08T13:48:10.158Z,0.92
2023-02-08T13:50:57.278Z,0.96
2023-02-08T13:54:03.658Z,0.97
2023-02-08T13:56:51.029Z,0.88
2023-02-08T13:59:34.283Z,0.85
2023-02-08T14:02:17.704Z,0.74
2023-02-08T14:04:47.360Z,0.70
2023-02-08T14:07:23.325Z,0.71
2023-02-08T14:10:19.251Z,0.70
2023-02-08T14:12:57.743Z,0.68
2023-02-08T14:15:29.402Z,0.71
2023-02-08T14:17:58.614Z,0.69
2023-02-08T14:21:06.116Z,0.70
2023-02-08T14:23:38.211Z,0.63
2023-02-08T14:26:10.174Z,0.56
2023-02-08T14:28:41.118Z,0.53
2023-02-08T14:31:10.882Z,0.52
2023-02-08T14:33:40.929Z,0.53
2023-02-08T14:36:31.597Z,0.46
2023-02-08T14:39:24.962Z,0.39
2023-02-08T14:41:55.440Z,0.36
2023-02-08T14:44:42.285Z,0.36
2023-02-08T14:47:33.626Z,0.25
2023-02-08T14:50:21.073Z,0.24
2023-02-08T14:52:55.416Z,0.18
2023-02-08T14:55:27.712Z,0.13
2023-02-08T14:57:57.732Z,0.12
2023-02-08T15:00:36.788Z,0.07
2023-02-08T15:03:06.127Z,0.02
2023-02-08T15:05:46.749Z,-0.02
2023-02-08T15:08:20.952Z,-0.13
2023-02-08T15:10:48.243Z,-0.19
2023-02-08T15:13:24.470Z,-0.29
2023-02-08T15:15:56.444Z,-0.39
2023-02-08T15:18:27.637Z,-0.51
2023-02-08T15:21:02.662Z,-0.62
2023-02-08T15:23:31.111Z,-0.72
2023-02-08T15:26:01.154Z,-0.77
2023-02-08T15:28:31.526Z,-0.88
2023-02-08T15:31:18.990Z,-0.96
2023-02-08T15:33:46.975Z,-1.03
2023-02-08T15:36:22.920Z,-1.08
2023-02-08T15:38:50.508Z,-1.09
2023-02-08T15:41:26.902Z,-1.21
2023-02-08T15:44:30.612Z,-1.28
2023-02-08T15:47:00.633Z,-1.38
2023-02-08T15:49:37.444Z,-1.51
2023-02-08T15:52:06.077Z,-1.59
2023-02-08T15:54:33.809Z,-1.71
2023-02-08T15:57:22.903Z,-1.80
2023-02-08T15:59:50.770Z,-1.96
2023-02-08T16:02:28.008Z,-2.04
2023-02-08T16:04:56.271Z,-2.06
2023-02-08T16:07:47.016Z,-2.15
2023-02-08T16:10:36.884Z,-2.25
2023-02-08T16:13:06.953Z,-2.40
2023-02-08T16:15:38.856Z,-2.47
2023-02-08T16:18:06.923Z,-2.51
2023-02-08T16:20:35.575Z,-2.58
2023-02-08T16:23:22.279Z,-2.68
2023-02-08T16:25:50.687Z,-2.81
2023-02-08T16:28:28.291Z,-2.90
2023-02-08T16:30:59.181Z,-2.96
2023-02-08T16:33:26.757Z,-3.01
2023-02-08T16:36:02.043Z,-3.07
2023-02-08T16:38:32.352Z,-3.21
2023-02-08T16:41:12.598Z,-3.21
2023-02-08T16:43:44.189Z,-3.33
2023-02-08T16:46:22.673Z,-3.31
2023-02-08T16:48:53.102Z,-3.37
2023-02-08T16:51:29.212Z,-3.44
2023-02-08T16:54:07.795Z,-3.57
2023-02-08T16:56:39.506Z,-3.66
2023-02-08T16:59:06.949Z,-3.65
2023-02-08T17:01:35.508Z,-3.69
2023-02-08T17:04:02.873Z,-3.81
2023-02-08T17:06:33.109Z,-3.87
2023-02-08T17:09:01.711Z,-3.93
2023-02-08T17:11:30.008Z,-4.02
2023-02-08T17:13:58.660Z,-4.11
2023-02-08T17:16:29.232Z,-4.22
2023-02-08T17:18:59.247Z,-4.35
2023-02-08T17:21:29.324Z,-4.42
2023-02-08T17:23:57.099Z,-4.49
2023-02-08T17:26:42.808Z,-4.49
2023-02-08T17:29:12.509Z,-4.58
2023-02-08T17:31:41.297Z,-4.64
2023-02-08T17:34:08.466Z,-4.71
2023-02-08T17:36:36.933Z,-4.74
2023-02-08T17:39:05.773Z,-4.73
2023-02-08T17:41:34.117Z,-4.75
2023-02-08T17:44:01.966Z,-4.81
2023-02-08T17:46:32.616Z,-4.85
2023-02-08T17:49:01.975Z,-4.85
2023-02-08T17:51:30.693Z,-4.83
2023-02-08T17:53:58.176Z,-4.82
2023-02-08T17:56:27.708Z,-4.86
2023-02-08T17:58:55.577Z,-4.88
2023-02-08T18:01:25.547Z,-4.94
2023-02-08T18:03:53.736Z,-5.01
2023-02-08T18:06:24.012Z,-5.07
2023-02-08T18:08:52.295Z,-5.14
2023-02-08T18:11:21.045Z,-5.13
2023-02-08T18:13:49.522Z,-5.22
2023-02-08T18:16:28.115Z,-5.25
2023-02-08T18:19:01.374Z,-5.37
2023-02-08T18:21:33.020Z,-5.50
2023-02-08T18:24:04.972Z,-5.47
2023-02-08T18:26:36.324Z,-5.46
2023-02-08T18:29:04.860Z,-5.52
2023-02-08T18:31:32.971Z,-5.62
2023-02-08T18:34:00.702Z,-5.75
2023-02-08T18:36:28.528Z,-5.82
2023-02-08T18:38:56.940Z,-5.83
2023-02-08T18:41:26.877Z,-5.87
2023-02-08T18:43:55.524Z,-5.92
2023-02-08T18:46:24.762Z,-6.05
2023-02-08T18:48:54.368Z,-6.23
2023-02-08T18:51:23.968Z,-6.18
2023-02-08T18:53:54.065Z,-6.17
2023-02-08T18:56:24.292Z,-6.15
2023-02-08T18:58:53.115Z,-6.16
2023-02-08T19:01:22.960Z,-6.17
2023-02-08T19:03:51.989Z,-6.22
2023-02-08T19:06:25.908Z,-6.28
2023-02-08T19:08:55.886Z,-6.29
2023-02-08T19:11:26.418Z,-6.33
2023-02-08T19:13:56.939Z,-6.39
2023-02-08T19:16:25.268Z,-6.36
2023-02-08T19:18:56.716Z,-6.34
2023-02-08T19:21:24.429Z,-6.35
2023-02-08T19:23:52.857Z,-6.35
2023-02-08T19:26:26.145Z,-6.40
2023-02-08T19:28:54.200Z,-6.44
2023-02-08T19:31:24.087Z,-6.49
2023-02-08T19:33:58.693Z,-6.61
2023-02-08T19:36:29.832Z,-6.76
2023-02-08T19:38:58.053Z,-6.77
2023-02-08T19:41:33.537Z,-6.78
2023-02-08T19:44:01.329Z,-6.87
2023-02-08T19:46:29.375Z,-7.01
2023-02-08T19:49:00.331Z,-6.88
2023-02-08T19:51:30.437Z,-6.93
2023-02-08T19:54:02.094Z,-6.92
2023-02-08T19:56:36.918Z,-6.93
2023-02-08T19:59:06.316Z,-6.91
2023-02-08T20:01:35.673Z,-6.93
2023-02-08T20:04:04.184Z,-6.90
2023-02-08T20:06:35.168Z,-6.91
2023-02-08T20:09:04.299Z,-6.95
2023-02-08T20:11:35.888Z,-6.97
2023-02-08T20:14:04.517Z,-6.94
2023-02-08T20:16:33.396Z,-6.94
2023-02-08T20:19:01.362Z,-7.03
2023-02-08T20:21:29.613Z,-7.06
2023-02-08T20:23:57.317Z,-7.10
2023-02-08T20:26:27.128Z,-7.08
2023-02-08T20:28:57.330Z,-7.12
2023-02-08T20:31:28.748Z,-7.33
2023-02-08T20:34:02.568Z,-7.42
2023-02-08T20:36:40.967Z,-7.58
2023-02-08T20:39:09.852Z,-7.59
2023-02-08T20:41:38.604Z,-7.57
2023-02-08T20:44:06.094Z,-7.59
2023-02-08T20:46:35.845Z,-7.66
2023-02-08T20:49:04.358Z,-7.79
2023-02-08T20:51:32.888Z,-7.67
2023-02-08T20:54:01.260Z,-7.66
2023-02-08T20:56:35.195Z,-7.59
2023-02-08T20:59:07.537Z,-7.58
2023-02-08T21:01:35.730Z,-7.57
2023-02-08T21:04:03.944Z,-7.62
2023-02-08T21:06:34.575Z,-7.65
2023-02-08T21:09:11.731Z,-7.65
2023-02-08T21:11:40.361Z,-7.67
2023-02-08T21:14:08.627Z,-7.57
2023-02-08T21:16:36.472Z,-7.21
2023-02-08T21:19:03.837Z,-7.11
2023-02-08T21:21:31.576Z,-7.16
2023-02-08T21:23:59.939Z,-7.33
2023-02-08T21:26:27.789Z,-7.51
2023-02-08T21:28:56.485Z,-7.61
2023-02-08T21:31:25.053Z,-7.66
2023-02-08T21:33:53.144Z,-7.65
2023-02-08T21:36:23.323Z,-7.65
2023-02-08T21:38:51.791Z,-7.68
2023-02-08T21:41:23.400Z,-7.70
2023-02-08T21:43:53.269Z,-7.77
2023-02-08T21:46:22.356Z,-7.69
2023-02-08T21:49:08.503Z,-7.68
2023-02-08T21:51:55.925Z,-7.75
2023-02-08T21:54:31.700Z,-7.81
2023-02-08T21:57:00.718Z,-7.80
2023-02-08T21:59:28.951Z,-7.81
2023-02-08T22:01:57.050Z,-7.87
2023-02-08T22:04:25.725Z,-7.91
2023-02-08T22:06:53.768Z,-7.84
2023-02-08T22:09:21.721Z,-7.85
2023-02-08T22:11:49.582Z,-7.85
2023-02-08T22:14:16.997Z,-7.87
2023-02-08T22:16:45.197Z,-7.91
2023-02-08T22:19:15.919Z,-7.79
2023-02-08T22:21:46.080Z,-7.74
2023-02-08T22:24:13.436Z,-7.65
2023-02-08T22:26:41.237Z,-7.63
2023-02-08T22:29:08.443Z,-7.72
2023-02-08T22:31:36.418Z,-7.81
2023-02-08T22:34:03.991Z,-7.91
2023-02-08T22:36:31.661Z,-7.74
2023-02-08T22:38:59.960Z,-7.59
2023-02-08T22:41:28.034Z,-7.48
2023-02-08T22:43:55.341Z,-7.49
2023-02-08T22:46:23.168Z,-7.54
2023-02-08T22:48:50.489Z,-7.58
2023-02-08T22:51:19.426Z,-7.61
2023-02-08T22:53:47.205Z,-7.68
2023-02-08T22:56:15.859Z,-7.70
2023-02-08T22:58:43.192Z,-7.70
2023-02-08T23:01:16.190Z,-7.75
2023-02-08T23:03:43.812Z,-7.65
2023-02-08T23:06:15.320Z,-7.54
2023-02-08T23:08:43.105Z,-7.42
2023-02-08T23:11:12.905Z,-7.32
2023-02-08T23:13:40.417Z,-7.23
2023-02-08T23:16:08.223Z,-7.16
2023-02-08T23:18:36.649Z,-7.10
2023-02-08T23:21:08.601Z,-7.06
2023-02-08T23:23:36.708Z,-7.06
2023-02-08T23:26:08.204Z,-6.92
2023-02-08T23:28:35.588Z,-6.93
2023-02-08T23:31:07.924Z,-6.79
2023-02-08T23:33:35.952Z,-6.72
2023-02-08T23:36:08.306Z,-6.59
2023-02-08T23:38:35.663Z,-6.51
2023-02-08T23:41:05.431Z,-6.40
2023-02-08T23:43:33.299Z,-6.16
2023-02-08T23:46:16.421Z,-5.99
2023-02-08T23:48:44.180Z,-5.87
2023-02-08T23:51:11.723Z,-5.82
2023-02-08T23:53:38.967Z,-5.76
2023-02-08T23:56:26.442Z,-5.64
2023-02-08T23:58:58.563Z,-5.59
